Time;durP1;ratioP1;P1;durP2;ratioP2;P2;SDS_P1;SDS_P2;PMS_P1;PMS_P2;Temp;Humidity;BMP_temperature;BMP_pressure;BME280_temperature;BME280_humidity;BME280_pressure;Samples;Min_cycle;Max_cycle;Signal;HPM_P1;HPM_P2
2023/12/04 00:02:14;;;;;;;1.10;0.88;;;;;;;0.55;77.69;95079.09;5045305;28;20243;-77
2023/12/04 00:04:41;;;;;;;2.72;1.50;;;;;;;0.58;78.46;95084.72;5047089;28;20618;-72
2023/12/04 00:07:07;;;;;;;0.82;0.80;;;;;;;0.50;78.23;95093.22;5046685;28;20321;-70
2023/12/04 00:09:35;;;;;;;1.27;1.17;;;;;;;0.75;78.69;95083.81;5043394;28;20227;-76
2023/12/04 00:12:02;;;;;;;0.95;0.95;;;;;;;0.69;78.41;95086.41;5043419;28;20250;-76
2023/12/04 00:14:29;;;;;;;1.35;1.00;;;;;;;0.68;77.55;95095.47;5046937;28;20553;-75
2023/12/04 00:16:56;;;;;;;1.10;1.00;;;;;;;0.73;77.23;95101.91;5046670;28;20481;-72
2023/12/04 00:19:23;;;;;;;1.60;1.25;;;;;;;0.70;77.28;95098.69;5042864;28;20235;-71
2023/12/04 00:21:49;;;;;;;3.13;0.90;;;;;;;0.74;77.30;95100.88;5048854;28;20211;-71
2023/12/04 00:24:16;;;;;;;1.05;0.90;;;;;;;0.75;77.36;95110.47;5051916;28;20208;-70
2023/12/04 00:26:44;;;;;;;1.63;1.13;;;;;;;0.84;77.31;95108.94;5050402;28;20195;-70
2023/12/04 00:29:11;;;;;;;0.80;0.80;;;;;;;0.90;76.46;95113.25;5047767;28;20215;-70
2023/12/04 00:31:38;;;;;;;3.20;1.40;;;;;;;0.88;76.09;95118.03;5049242;28;20276;-74
2023/12/04 00:34:04;;;;;;;1.35;1.00;;;;;;;0.83;74.91;95108.13;5051286;28;20591;-73
2023/12/04 00:36:31;;;;;;;0.95;0.82;;;;;;;0.88;75.20;95131.38;5047631;28;20281;-72
2023/12/04 00:38:58;;;;;;;0.75;0.70;;;;;;;0.68;73.65;95132.78;5047208;28;20254;-74
2023/12/04 00:41:25;;;;;;;1.67;1.05;;;;;;;0.60;73.78;95133.28;5050169;28;20253;-75
2023/12/04 00:43:53;;;;;;;0.90;0.75;;;;;;;0.56;75.01;95128.69;5044749;28;20210;-75
2023/12/04 00:46:20;;;;;;;1.63;1.00;;;;;;;0.70;75.15;95140.53;5052261;28;20211;-75
2023/12/04 00:48:47;;;;;;;3.55;1.67;;;;;;;0.71;75.80;95137.63;5046714;28;20199;-75
2023/12/04 00:51:13;;;;;;;3.88;2.03;;;;;;;0.61;76.36;95148.22;5050323;28;20230;-75
2023/12/04 00:53:40;;;;;;;1.85;1.05;;;;;;;0.80;76.15;95145.19;5048879;28;20212;-76
2023/12/04 00:56:08;;;;;;;3.20;1.25;;;;;;;0.80;75.61;95155.84;5049359;28;20226;-74
2023/12/04 00:58:35;;;;;;;2.55;1.08;;;;;;;0.72;74.73;95154.44;5049619;28;20207;-77
2023/12/04 01:01:04;;;;;;;3.97;1.63;;;;;;;0.73;75.61;95160.56;5051769;28;20255;-75
2023/12/04 01:03:32;;;;;;;4.22;1.40;;;;;;;0.62;73.84;95155.16;5046019;28;20207;-77
2023/12/04 01:05:59;;;;;;;2.80;1.48;;;;;;;0.63;75.28;95156.75;5048339;28;20216;-76
2023/12/04 01:08:26;;;;;;;1.80;1.10;;;;;;;0.71;75.11;95160.81;5048345;28;20195;-77
2023/12/04 01:10:53;;;;;;;1.92;1.38;;;;;;;0.83;75.40;95155.31;5044515;28;20219;-76
2023/12/04 01:13:20;;;;;;;0.98;0.93;;;;;;;0.68;74.86;95156.78;5048452;28;20212;-75
2023/12/04 01:15:48;;;;;;;0.98;0.88;;;;;;;0.79;75.38;95154.25;5048814;28;20207;-76
2023/12/04 01:18:16;;;;;;;2.22;1.35;;;;;;;0.81;74.92;95165.47;5046998;28;20218;-75
2023/12/04 01:20:43;;;;;;;4.03;1.88;;;;;;;0.54;74.50;95162.81;5048316;28;20291;-77
2023/12/04 01:23:10;;;;;;;2.22;1.23;;;;;;;0.45;75.00;95173.09;5043197;28;20209;-77
2023/12/04 01:25:37;;;;;;;3.42;1.88;;;;;;;0.46;76.02;95168.56;5047705;28;20631;-76
2023/12/04 01:28:04;;;;;;;3.70;1.92;;;;;;;0.23;76.03;95167.00;5046578;28;20204;-77
2023/12/04 01:30:30;;;;;;;3.42;1.63;;;;;;;0.17;76.51;95163.47;5044790;28;20236;-77
2023/12/04 01:32:57;;;;;;;7.38;2.00;;;;;;;0.28;77.16;95169.69;5048958;28;20216;-77
2023/12/04 01:35:25;;;;;;;3.00;1.77;;;;;;;0.42;77.14;95160.25;5047320;28;20204;-76
2023/12/04 01:37:52;;;;;;;2.08;1.88;;;;;;;0.33;75.49;95167.09;5047216;28;20219;-75
2023/12/04 01:40:19;;;;;;;6.20;2.78;;;;;;;0.56;75.49;95174.00;5045066;28;20199;-77
2023/12/04 01:42:45;;;;;;;2.63;1.75;;;;;;;0.47;75.36;95168.31;5049355;28;20208;-77
2023/12/04 01:45:11;;;;;;;3.22;1.85;;;;;;;0.44;75.14;95174.16;5047474;28;20211;-77
2023/12/04 01:47:39;;;;;;;2.72;1.55;;;;;;;0.34;75.54;95179.38;5048808;28;20589;-78
2023/12/04 01:50:07;;;;;;;3.20;1.33;;;;;;;0.27;74.99;95173.44;5049377;28;20678;-77
2023/12/04 01:52:37;;;;;;;5.25;2.00;;;;;;;0.24;74.77;95172.09;5046803;28;20604;-76
2023/12/04 01:55:07;;;;;;;2.95;1.38;;;;;;;0.40;75.62;95167.72;5047568;28;20223;-74
2023/12/04 01:57:34;;;;;;;2.20;1.55;;;;;;;0.13;75.94;95177.53;5047417;28;20231;-73
2023/12/04 02:00:00;;;;;;;0.73;0.65;;;;;;;0.13;75.18;95177.53;5049689;28;20516;-74
2023/12/04 02:02:28;;;;;;;2.08;1.35;;;;;;;0.23;75.72;95167.00;5046505;28;20293;-75
2023/12/04 02:04:56;;;;;;;2.75;1.42;;;;;;;0.04;75.97;95177.16;5045050;28;20547;-75
2023/12/04 02:07:23;;;;;;;1.90;1.38;;;;;;;-0.04;76.24;95181.06;5048365;28;20253;-75
2023/12/04 02:09:51;;;;;;;1.48;1.05;;;;;;;0.05;76.89;95181.44;5049334;28;20200;-75
2023/12/04 02:12:18;;;;;;;1.52;0.95;;;;;;;0.17;77.42;95186.63;5048888;28;20615;-74
2023/12/04 02:14:45;;;;;;;1.25;1.15;;;;;;;0.02;76.78;95189.09;5042210;28;20211;-76
2023/12/04 02:17:13;;;;;;;1.35;1.08;;;;;;;0.12;76.58;95200.72;5049520;28;20626;-73
2023/12/04 02:19:40;;;;;;;5.05;1.30;;;;;;;0.21;76.49;95196.53;5042972;28;20296;-74
2023/12/04 02:22:07;;;;;;;1.77;1.00;;;;;;;0.04;76.06;95205.66;5048277;28;20208;-73
2023/12/04 02:24:36;;;;;;;4.05;1.80;;;;;;;0.16;75.86;95198.34;5046789;28;20671;-73
2023/12/04 02:27:11;;;;;;;0.95;0.85;;;;;;;-0.09;76.45;95207.63;5045261;28;20271;-75
2023/12/04 02:29:43;;;;;;;5.03;2.13;;;;;;;-0.06;76.81;95209.81;5044802;28;20210;-74
2023/12/04 02:32:15;;;;;;;2.25;1.65;;;;;;;0.00;76.73;95208.03;5043568;28;20277;-75
2023/12/04 02:34:46;;;;;;;2.10;1.38;;;;;;;0.11;76.85;95220.41;5048766;28;20314;-74
2023/12/04 02:37:14;;;;;;;4.45;1.75;;;;;;;0.06;75.95;95203.53;5046875;28;20206;-76
2023/12/04 02:39:42;;;;;;;2.50;1.55;;;;;;;0.11;76.06;95208.94;5047235;28;20396;-74
2023/12/04 02:42:09;;;;;;;1.90;1.50;;;;;;;0.11;74.94;95216.94;5045490;28;20207;-78
2023/12/04 02:44:36;;;;;;;2.65;1.30;;;;;;;0.05;75.15;95217.91;5048053;28;20257;-76
2023/12/04 02:47:03;;;;;;;1.63;0.88;;;;;;;0.00;73.93;95216.78;5043625;28;20196;-77
2023/12/04 02:49:30;;;;;;;1.90;1.05;;;;;;;0.14;74.64;95216.41;5045531;28;20253;-75
2023/12/04 02:51:57;;;;;;;1.73;1.15;;;;;;;0.03;74.74;95220.00;5048926;28;20281;-76
2023/12/04 02:54:24;;;;;;;2.88;1.65;;;;;;;-0.01;74.43;95233.03;5045836;28;20208;-76
2023/12/04 02:56:52;;;;;;;1.50;1.40;;;;;;;0.11;74.08;95222.25;5044235;28;20318;-76
2023/12/04 02:59:19;;;;;;;1.92;0.98;;;;;;;-0.25;74.78;95210.31;5048382;28;20425;-80
2023/12/04 03:01:46;;;;;;;1.08;0.93;;;;;;;-0.29;75.20;95212.69;5041149;28;20236;-77
2023/12/04 03:04:12;;;;;;;2.75;1.35;;;;;;;-0.16;75.25;95212.34;5041083;28;20216;-73
2023/12/04 03:06:39;;;;;;;1.58;1.13;;;;;;;-0.05;75.34;95219.41;5047440;28;20675;-77
2023/12/04 03:09:06;;;;;;;2.60;1.40;;;;;;;-0.16;74.73;95215.00;5041688;28;20204;-76
2023/12/04 03:11:33;;;;;;;1.50;1.13;;;;;;;-0.28;75.28;95219.63;5038327;28;20220;-76
2023/12/04 03:14:01;;;;;;;1.58;1.40;;;;;;;-0.34;74.84;95220.59;5048750;28;20207;-75
2023/12/04 03:16:28;;;;;;;1.15;1.05;;;;;;;-0.36;75.40;95214.69;5046986;28;20204;-77
2023/12/04 03:18:55;;;;;;;1.05;0.93;;;;;;;-0.50;75.31;95213.44;5044011;28;20211;-76
2023/12/04 03:21:21;;;;;;;2.58;1.85;;;;;;;-0.37;75.93;95215.75;5046841;28;20203;-78
2023/12/04 03:23:48;;;;;;;2.55;1.55;;;;;;;-0.34;75.63;95219.78;5052524;28;20208;-78
2023/12/04 03:26:15;;;;;;;2.70;1.40;;;;;;;-0.26;75.14;95222.81;5058474;28;20199;-79
2023/12/04 03:28:43;;;;;;;2.05;1.52;;;;;;;-0.44;74.88;95220.44;5050572;28;20210;-78
2023/12/04 03:31:11;;;;;;;2.30;1.85;;;;;;;-0.31;74.60;95225.44;5052799;28;20219;-78
2023/12/04 03:33:38;;;;;;;1.67;0.98;;;;;;;-0.37;74.93;95221.06;5056502;28;20203;-78
2023/12/04 03:36:05;;;;;;;2.40;1.73;;;;;;;-0.34;75.46;95223.25;5055414;28;20205;-76
2023/12/04 03:38:32;;;;;;;1.52;0.95;;;;;;;-0.41;75.03;95225.28;5056711;28;20245;-74
2023/12/04 03:40:59;;;;;;;4.18;1.02;;;;;;;-0.40;75.33;95233.00;5046264;28;20208;-72
2023/12/04 03:43:26;;;;;;;2.45;1.60;;;;;;;-0.58;76.26;95245.78;5043742;28;20265;-72
2023/12/04 03:45:52;;;;;;;5.30;1.75;;;;;;;-0.74;76.85;95237.56;5043673;28;20195;-71
2023/12/04 03:48:20;;;;;;;3.42;2.10;;;;;;;-0.69;77.74;95244.00;5035476;28;20204;-71
2023/12/04 03:50:47;;;;;;;3.20;1.67;;;;;;;-0.67;77.44;95247.22;5049574;28;20594;-73
2023/12/04 03:53:14;;;;;;;2.03;1.65;;;;;;;-0.58;77.78;95240.47;5049377;28;20230;-76
2023/12/04 03:55:41;;;;;;;5.95;2.90;;;;;;;-0.68;77.97;95245.63;5043001;28;20211;-76
2023/12/04 03:58:08;;;;;;;3.40;1.75;;;;;;;-0.78;77.20;95239.06;5044204;28;20264;-77
2023/12/04 04:00:35;;;;;;;4.32;1.95;;;;;;;-0.85;77.40;95240.31;5039837;28;20524;-75
2023/12/04 04:03:02;;;;;;;1.55;1.45;;;;;;;-0.83;77.13;95228.38;5044236;28;20211;-76
2023/12/04 04:05:30;;;;;;;2.97;1.80;;;;;;;-0.75;77.58;95251.91;5028820;28;20249;-77
2023/12/04 04:07:57;;;;;;;1.33;1.08;;;;;;;-0.96;77.18;95238.53;5044729;28;20545;-78
2023/12/04 04:10:24;;;;;;;2.38;1.67;;;;;;;-0.81;77.55;95252.84;5047346;28;20200;-76
2023/12/04 04:12:50;;;;;;;1.85;1.55;;;;;;;-0.96;77.44;95233.22;5055967;28;20239;-76
2023/12/04 04:15:17;;;;;;;7.25;2.38;;;;;;;0.34;95.66;95230.81;5049543;28;20200;-74
2023/12/04 04:17:44;;;;;;;3.10;1.85;;;;;;;0.04;84.22;95232.28;5047512;28;20200;-76
2023/12/04 04:20:12;;;;;;;2.75;1.77;;;;;;;-0.65;77.22;95245.13;5061020;28;20207;-77
2023/12/04 04:22:40;;;;;;;2.17;0.95;;;;;;;-0.89;76.79;95245.28;5057482;28;20203;-77
2023/12/04 04:25:08;;;;;;;4.50;2.00;;;;;;;-0.97;77.12;95253.66;5051227;28;20215;-74
2023/12/04 04:27:35;;;;;;;1.58;1.20;;;;;;;-0.99;77.53;95261.06;5046529;28;20203;-77
2023/12/04 04:30:02;;;;;;;2.67;1.75;;;;;;;-0.97;77.29;95261.66;5044773;28;20208;-78
2023/12/04 04:32:29;;;;;;;3.28;2.05;;;;;;;-0.91;77.78;95255.34;5043384;28;20223;-78
2023/12/04 04:34:56;;;;;;;3.10;2.20;;;;;;;-0.99;77.04;95260.28;5045922;28;20607;-76
2023/12/04 04:37:23;;;;;;;8.68;2.38;;;;;;;-1.02;77.24;95256.22;5046719;28;20585;-77
2023/12/04 04:39:51;;;;;;;3.30;2.33;;;;;;;-0.95;76.63;95264.03;5044933;28;20647;-77
2023/12/04 04:42:17;;;;;;;4.97;2.45;;;;;;;-1.06;76.52;95260.41;5041574;28;20212;-77
2023/12/04 04:44:44;;;;;;;3.65;1.83;;;;;;;-1.02;75.97;95266.88;5049135;28;20623;-78
2023/12/04 04:47:11;;;;;;;3.35;1.90;;;;;;;-1.03;75.28;95259.94;5050093;28;20215;-76
2023/12/04 04:49:38;;;;;;;1.60;1.30;;;;;;;-1.12;75.41;95277.31;5049793;28;20226;-76
2023/12/04 04:52:05;;;;;;;3.60;2.25;;;;;;;-1.03;74.81;95278.53;5048599;28;20246;-77
2023/12/04 04:54:33;;;;;;;3.97;1.77;;;;;;;-1.12;75.56;95283.44;5049298;28;20216;-79
2023/12/04 04:57:01;;;;;;;5.88;2.50;;;;;;;-1.14;75.15;95280.22;5049748;28;20602;-80
2023/12/04 04:59:30;;;;;;;2.15;1.45;;;;;;;-1.29;75.87;95287.09;5049515;28;20215;-77
2023/12/04 05:01:57;;;;;;;2.45;1.65;;;;;;;-1.14;75.71;95284.72;5049911;28;20315;-78
2023/12/04 05:04:23;;;;;;;2.75;1.05;;;;;;;-1.13;74.47;95286.34;5049625;28;20204;-78
2023/12/04 05:06:50;;;;;;;7.10;2.33;;;;;;;-1.12;74.83;95293.28;5052992;28;20219;-78
2023/12/04 05:09:17;;;;;;;2.80;1.67;;;;;;;-1.14;75.11;95284.72;5054044;28;20663;-78
2023/12/04 05:11:44;;;;;;;4.65;2.15;;;;;;;-1.04;75.43;95290.22;5053732;28;20305;-79
2023/12/04 05:14:12;;;;;;;3.55;1.90;;;;;;;-1.05;75.23;95299.22;5053430;28;20237;-79
2023/12/04 05:16:39;;;;;;;3.08;1.65;;;;;;;-1.11;75.86;95294.88;5053290;28;20207;-77
2023/12/04 05:19:06;;;;;;;3.28;1.83;;;;;;;-1.14;76.49;95296.16;5053178;28;20258;-78
2023/12/04 05:21:32;;;;;;;2.88;2.17;;;;;;;-1.13;75.94;95304.94;5053210;28;20580;-78
2023/12/04 05:23:59;;;;;;;3.55;2.17;;;;;;;-1.14;76.42;95300.66;5052988;28;20257;-77
2023/12/04 05:26:26;;;;;;;3.17;1.70;;;;;;;-0.98;77.25;95307.88;5052831;28;20215;-77
2023/12/04 05:28:53;;;;;;;5.85;2.50;;;;;;;-1.07;76.83;95306.63;5052941;28;20253;-79
2023/12/04 05:31:21;;;;;;;2.60;1.88;;;;;;;-1.05;76.70;95304.56;5053225;28;20231;-78
2023/12/04 05:33:48;;;;;;;3.35;1.48;;;;;;;-1.24;76.67;95313.78;5053239;28;20250;-80
2023/12/04 05:36:15;;;;;;;4.43;2.00;;;;;;;-1.29;77.54;95308.34;5052947;28;20265;-79
2023/12/04 05:38:41;;;;;;;2.70;1.42;;;;;;;-1.39;77.32;95316.13;5034918;28;20294;-78
2023/12/04 05:41:08;;;;;;;1.80;1.52;;;;;;;-1.17;77.52;95317.09;5053328;28;20273;-78
2023/12/04 05:43:35;;;;;;;4.35;2.63;;;;;;;-1.17;76.87;95317.91;5053073;28;20603;-72
2023/12/04 05:46:01;;;;;;;1.92;1.52;;;;;;;-1.24;76.77;95313.78;5053346;28;20266;-75
2023/12/04 05:48:30;;;;;;;2.80;1.75;;;;;;;-1.15;77.73;95320.31;5052833;28;20234;-75
2023/12/04 05:50:57;;;;;;;3.95;1.77;;;;;;;-1.27;77.88;95322.22;5052954;28;20208;-75
2023/12/04 05:53:23;;;;;;;3.90;1.95;;;;;;;-1.38;78.20;95320.41;5052316;28;20296;-75
2023/12/04 05:55:50;;;;;;;2.42;1.65;;;;;;;-1.40;78.96;95319.84;5053037;28;20313;-75
2023/12/04 05:58:17;;;;;;;4.00;2.17;;;;;;;-1.36;79.11;95328.94;5053019;28;20648;-75
2023/12/04 06:00:44;;;;;;;5.00;2.05;;;;;;;-1.33;79.47;95328.47;5044585;28;20239;-76
2023/12/04 06:03:10;;;;;;;4.47;2.05;;;;;;;-1.26;79.39;95321.19;5052709;28;20670;-75
2023/12/04 06:05:39;;;;;;;2.35;1.73;;;;;;;-1.10;79.01;95326.56;5051645;28;20207;-76
2023/12/04 06:08:05;;;;;;;3.15;2.50;;;;;;;-1.19;79.48;95327.16;5044945;28;20254;-76
2023/12/04 06:10:34;;;;;;;1.15;1.10;;;;;;;-1.22;78.90;95335.59;5050446;28;20583;-74
2023/12/04 06:13:01;;;;;;;2.90;1.55;;;;;;;-1.22;79.28;95327.63;5052429;28;20233;-75
2023/12/04 06:15:28;;;;;;;4.43;2.35;;;;;;;-1.15;80.02;95336.28;5052521;28;20208;-76
2023/12/04 06:17:55;;;;;;;2.97;2.25;;;;;;;-0.96;79.90;95339.56;5052402;28;20284;-75
2023/12/04 06:20:21;;;;;;;2.95;1.90;;;;;;;-0.72;79.02;95333.06;5051973;28;20231;-75
2023/12/04 06:22:50;;;;;;;3.50;1.88;;;;;;;-0.48;77.83;95333.75;5052386;28;20214;-75
2023/12/04 06:25:18;;;;;;;5.38;2.60;;;;;;;-0.54;77.90;95329.38;5043372;28;20200;-74
2023/12/04 06:27:45;;;;;;;1.45;1.00;;;;;;;-0.60;77.75;95328.50;5041352;28;20200;-76
2023/12/04 06:30:13;;;;;;;2.42;1.45;;;;;;;-0.55;77.04;95336.56;5049292;28;20203;-75
2023/12/04 06:32:40;;;;;;;5.00;2.55;;;;;;;-0.47;76.43;95338.00;5051091;28;20226;-74
2023/12/04 06:35:08;;;;;;;3.08;2.30;;;;;;;-0.54;75.97;95343.47;5038690;28;20571;-75
2023/12/04 06:37:37;;;;;;;3.22;1.88;;;;;;;-0.29;76.47;95351.09;5046995;28;20274;-75
2023/12/04 06:40:10;;;;;;;1.75;0.95;;;;;;;-0.32;74.87;95340.94;5051601;28;20204;-74
2023/12/04 06:42:38;;;;;;;4.18;1.35;;;;;;;-0.37;75.38;95343.50;5051160;28;20228;-75
2023/12/04 06:45:06;;;;;;;2.35;1.85;;;;;;;-0.22;74.89;95348.25;5052015;28;20667;-74
2023/12/04 06:47:35;;;;;;;2.05;1.83;;;;;;;-0.02;74.69;95352.06;5051345;28;20321;-74
2023/12/04 06:50:02;;;;;;;2.65;1.25;;;;;;;0.11;73.56;95358.09;5048258;28;20212;-75
2023/12/04 06:52:29;;;;;;;1.45;1.23;;;;;;;-0.20;73.72;95360.28;5051195;28;20303;-75
2023/12/04 06:54:55;;;;;;;3.05;1.27;;;;;;;0.12;73.12;95357.84;5051651;28;20215;-75
2023/12/04 06:57:23;;;;;;;1.20;1.10;;;;;;;-0.05;73.73;95355.19;5051245;28;20211;-76
2023/12/04 06:59:50;;;;;;;1.48;1.00;;;;;;;-0.12;74.09;95361.72;5051726;28;20211;-76
2023/12/04 07:02:17;;;;;;;3.20;1.80;;;;;;;-0.05;74.12;95367.72;5050645;28;20263;-75
2023/12/04 07:04:44;;;;;;;2.85;1.70;;;;;;;0.23;74.98;95362.28;5054919;28;20257;-77
2023/12/04 07:07:12;;;;;;;2.42;2.03;;;;;;;0.26;73.58;95366.31;5056633;28;20297;-77
2023/12/04 07:09:39;;;;;;;2.03;1.60;;;;;;;0.08;74.35;95379.88;5055347;28;20302;-77
2023/12/04 07:12:06;;;;;;;2.03;1.40;;;;;;;0.29;73.47;95376.47;5057351;28;20311;-77
2023/12/04 07:14:36;;;;;;;2.13;1.63;;;;;;;0.50;73.87;95375.69;5058073;28;20208;-78
2023/12/04 07:17:03;;;;;;;2.38;1.58;;;;;;;0.32;73.04;95367.97;5057103;28;20211;-78
2023/12/04 07:19:30;;;;;;;2.25;1.33;;;;;;;0.22;73.13;95367.84;5037612;28;20208;-79
2023/12/04 07:21:57;;;;;;;1.42;1.25;;;;;;;0.41;72.72;95361.16;5056885;28;20212;-76
2023/12/04 07:24:24;;;;;;;5.28;1.55;;;;;;;0.19;72.72;95368.31;5055879;28;20672;-78
2023/12/04 07:26:53;;;;;;;4.63;2.05;;;;;;;0.39;73.25;95379.28;5057394;28;20211;-78
2023/12/04 07:29:19;;;;;;;3.80;1.17;;;;;;;0.41;72.46;95385.16;5055956;28;20218;-77
2023/12/04 07:31:47;;;;;;;2.97;1.83;;;;;;;0.41;72.83;95376.38;5055594;28;20215;-78
2023/12/04 07:34:14;;;;;;;1.75;1.33;;;;;;;0.20;72.52;95391.25;5057653;28;20211;-79
2023/12/04 07:36:41;;;;;;;2.47;1.83;;;;;;;-0.08;73.31;95382.31;5054911;28;20211;-78
2023/12/04 07:39:09;;;;;;;3.83;2.00;;;;;;;0.10;72.85;95385.78;5055567;28;20219;-79
2023/12/04 07:41:35;;;;;;;1.30;0.77;;;;;;;0.00;72.53;95381.88;5052565;28;20584;-78
2023/12/04 07:44:03;;;;;;;1.75;1.15;;;;;;;0.30;72.66;95391.41;5050709;28;20211;-79
2023/12/04 07:46:30;;;;;;;4.13;2.25;;;;;;;0.00;72.86;95387.22;5037254;28;20208;-79
2023/12/04 07:48:58;;;;;;;1.70;1.35;;;;;;;0.16;73.10;95382.13;5050628;28;20278;-73
2023/12/04 07:51:24;;;;;;;1.80;1.00;;;;;;;0.32;71.88;95375.97;5050107;28;20230;-73
2023/12/04 07:53:51;;;;;;;2.63;1.08;;;;;;;0.30;71.79;95378.06;5050554;28;20232;-72
2023/12/04 07:56:18;;;;;;;5.53;1.73;;;;;;;0.47;71.16;95380.72;5050961;28;20215;-73
2023/12/04 07:58:45;;;;;;;2.55;1.60;;;;;;;0.67;69.49;95373.81;5050330;28;20208;-72
2023/12/04 08:01:12;;;;;;;1.77;1.45;;;;;;;0.20;70.52;95380.59;5050150;28;20240;-72
2023/12/04 08:03:39;;;;;;;3.35;1.35;;;;;;;0.43;68.86;95388.38;5050197;28;20207;-74
2023/12/04 08:06:08;;;;;;;1.55;0.90;;;;;;;0.46;69.18;95395.91;5050756;28;20207;-75
2023/12/04 08:08:35;;;;;;;2.08;1.33;;;;;;;0.80;69.29;95395.81;5050109;28;20212;-73
2023/12/04 08:11:02;;;;;;;0.52;0.52;;;;;;;0.59;68.73;95394.72;5051139;28;20606;-72
2023/12/04 08:13:29;;;;;;;2.90;2.00;;;;;;;0.57;70.05;95396.84;5031968;28;20287;-74
2023/12/04 08:15:55;;;;;;;2.42;1.25;;;;;;;0.63;69.13;95390.53;5050811;28;20567;-72
2023/12/04 08:18:24;;;;;;;3.40;1.63;;;;;;;0.74;69.27;95396.81;5050216;28;20211;-73
2023/12/04 08:20:51;;;;;;;1.00;1.00;;;;;;;0.58;67.16;95399.25;5050620;28;20666;-72
2023/12/04 08:23:20;;;;;;;3.03;1.70;;;;;;;0.90;67.33;95398.59;5050286;28;20643;-73
2023/12/04 08:25:47;;;;;;;1.25;1.02;;;;;;;0.74;64.74;95397.59;5032489;28;20281;-72
2023/12/04 08:28:14;;;;;;;2.22;0.65;;;;;;;0.75;65.78;95398.41;5050842;28;20219;-76
2023/12/04 08:30:40;;;;;;;0.57;0.50;;;;;;;0.97;64.59;95396.56;5050328;28;20214;-74
2023/12/04 08:33:07;;;;;;;1.15;1.05;;;;;;;0.95;63.97;95393.34;5049942;28;20239;-72
2023/12/04 08:35:34;;;;;;;2.40;1.20;;;;;;;0.82;64.56;95404.38;5050130;28;20230;-75
2023/12/04 08:38:02;;;;;;;2.75;0.82;;;;;;;0.66;64.02;95400.72;5050216;28;20215;-72
2023/12/04 08:40:30;;;;;;;1.30;1.15;;;;;;;1.10;64.33;95401.50;5051868;28;20208;-73
2023/12/04 08:42:57;;;;;;;3.47;1.77;;;;;;;1.14;64.47;95405.28;5054261;28;20644;-72
2023/12/04 08:45:24;;;;;;;1.92;1.00;;;;;;;1.47;64.10;95398.19;5054469;28;20579;-73
2023/12/04 08:47:50;;;;;;;1.10;0.90;;;;;;;1.41;62.75;95398.13;5054394;28;20616;-73
2023/12/04 08:50:17;;;;;;;1.10;1.00;;;;;;;1.71;62.54;95394.97;5054298;28;20204;-72
2023/12/04 08:52:44;;;;;;;1.35;1.08;;;;;;;1.96;61.48;95394.38;5053504;28;20778;-74
2023/12/04 08:55:11;;;;;;;1.13;0.93;;;;;;;1.98;60.36;95386.91;5053980;28;20223;-73
2023/12/04 08:57:39;;;;;;;2.30;1.33;;;;;;;2.37;60.06;95386.66;5053759;28;20262;-74
2023/12/04 09:00:08;;;;;;;0.80;0.57;;;;;;;1.69;59.81;95394.41;5054798;28;20207;-72
2023/12/04 09:02:35;;;;;;;3.78;0.95;;;;;;;1.56;60.17;95378.00;5053469;28;20330;-74
2023/12/04 09:05:00;;;;;;;0.77;0.77;;;;;;;1.59;61.26;95382.84;5054017;28;20212;-72
2023/12/04 09:07:27;;;;;;;1.17;0.73;;;;;;;1.56;60.81;95378.00;5053724;28;20212;-73
2023/12/04 09:09:54;;;;;;;0.77;0.77;;;;;;;1.57;60.73;95379.59;5053660;28;20737;-72
2023/12/04 09:12:21;;;;;;;1.02;0.90;;;;;;;1.79;60.49;95377.66;5053505;28;20222;-72
2023/12/04 09:14:49;;;;;;;0.57;0.57;;;;;;;1.52;61.80;95376.88;5053636;28;20665;-74
2023/12/04 09:17:16;;;;;;;3.63;1.48;;;;;;;1.61;62.15;95364.69;5053940;28;20218;-75
2023/12/04 09:19:43;;;;;;;5.32;1.85;;;;;;;1.78;60.08;95370.69;5053208;28;20211;-73
2023/12/04 09:22:10;;;;;;;1.15;0.82;;;;;;;1.78;60.64;95365.34;5053575;28;20212;-73
2023/12/04 09:24:40;;;;;;;1.48;1.00;;;;;;;2.26;59.97;95356.41;5053706;28;20208;-75
2023/12/04 09:27:07;;;;;;;1.85;0.88;;;;;;;2.85;59.27;95359.69;5053516;28;20207;-75
2023/12/04 09:29:34;;;;;;;1.98;1.13;;;;;;;2.66;59.59;95344.31;5053276;28;20609;-74
2023/12/04 09:32:02;;;;;;;1.85;0.98;;;;;;;2.79;58.50;95349.19;5053458;28;20212;-73
2023/12/04 09:34:29;;;;;;;4.57;1.13;;;;;;;2.88;59.26;95352.16;5053159;28;20734;-73
2023/12/04 09:36:56;;;;;;;1.00;0.90;;;;;;;3.38;56.91;95346.19;5053243;28;20298;-74
2023/12/04 09:39:23;;;;;;;1.52;1.13;;;;;;;3.31;57.71;95349.09;5053135;28;20200;-73
2023/12/04 09:41:51;;;;;;;0.90;0.80;;;;;;;2.99;57.67;95351.97;5052850;28;20207;-74
2023/12/04 09:44:19;;;;;;;1.10;0.63;;;;;;;2.94;57.05;95351.13;5053172;28;20561;-74
2023/12/04 09:46:47;;;;;;;2.38;1.05;;;;;;;3.53;57.11;95349.72;5053271;28;20230;-76
2023/12/04 09:49:16;;;;;;;1.20;1.10;;;;;;;2.91;56.98;95354.31;5052747;28;20199;-74
2023/12/04 09:51:43;;;;;;;1.27;1.00;;;;;;;2.78;58.30;95345.72;5052717;28;20227;-74
2023/12/04 09:54:10;;;;;;;0.20;0.20;;;;;;;3.31;56.69;95351.78;5052704;28;20235;-72
2023/12/04 09:56:38;;;;;;;0.38;0.38;;;;;;;2.83;57.49;95343.06;5052915;28;20618;-73
2023/12/04 09:59:07;;;;;;;0.60;0.60;;;;;;;2.51;57.81;95342.38;5052955;28;20816;-73
2023/12/04 10:01:35;;;;;;;6.05;2.45;;;;;;;2.66;59.66;95331.75;5052493;28;20251;-73
2023/12/04 10:04:04;;;;;;;2.45;1.52;;;;;;;2.26;56.60;95340.34;5052987;28;20655;-74
2023/12/04 10:06:34;;;;;;;0.75;0.70;;;;;;;2.19;56.91;95329.06;5052891;28;20207;-72
2023/12/04 10:09:01;;;;;;;2.05;1.52;;;;;;;2.37;57.85;95330.53;5052708;28;20687;-74
2023/12/04 10:11:28;;;;;;;1.05;0.85;;;;;;;2.99;58.48;95321.72;5052932;28;20550;-79
2023/12/04 10:13:55;;;;;;;1.15;0.93;;;;;;;3.63;57.05;95326.69;5052542;28;20224;-73
2023/12/04 10:16:36;;;;;;;3.00;1.30;;;;;;;3.77;56.11;95323.22;5052447;28;20613;-74
2023/12/04 10:19:17;;;;;;;0.73;0.35;;;;;;;3.29;53.51;95327.16;5052059;28;20214;-73
2023/12/04 10:21:47;;;;;;;0.20;0.20;;;;;;;2.67;55.33;95330.69;5034395;28;20294;-74
2023/12/04 10:24:27;;;;;;;0.47;0.47;;;;;;;2.65;56.24;95324.78;5052444;28;20207;-73
2023/12/04 10:26:54;;;;;;;4.22;2.05;;;;;;;2.45;55.39;95325.50;5052749;28;20609;-73
2023/12/04 10:29:21;;;;;;;1.23;1.13;;;;;;;2.74;55.71;95319.75;5052419;28;20204;-74
2023/12/04 10:31:50;;;;;;;1.02;0.90;;;;;;;3.05;55.64;95320.66;5052107;28;20207;-75
2023/12/04 10:34:17;;;;;;;1.00;0.82;;;;;;;3.45;56.25;95302.00;5052316;28;20234;-73
2023/12/04 10:36:45;;;;;;;1.38;1.27;;;;;;;3.55;54.50;95307.38;5052069;28;20207;-73
2023/12/04 10:39:14;;;;;;;1.90;1.08;;;;;;;3.41;56.07;95302.84;5051817;28;20238;-74
2023/12/04 10:41:41;;;;;;;0.30;0.30;;;;;;;3.28;55.66;95303.34;5038978;28;20578;-73
2023/12/04 10:44:08;;;;;;;0.20;0.20;;;;;;;3.55;55.33;95293.19;5051891;28;20212;-74
2023/12/04 10:46:37;;;;;;;0.20;0.20;;;;;;;3.57;54.56;95294.53;5052246;28;20643;-73
2023/12/04 10:49:05;;;;;;;0.30;0.30;;;;;;;3.21;54.65;95304.38;5051644;28;20215;-73
2023/12/04 10:51:31;;;;;;;0.73;0.73;;;;;;;3.31;53.44;95298.25;5052128;28;20212;-74
2023/12/04 10:53:59;;;;;;;0.30;0.30;;;;;;;3.35;52.86;95299.31;5052001;28;20544;-72
2023/12/04 10:56:34;;;;;;;0.20;0.20;;;;;;;3.35;53.78;95304.69;5033645;28;20215;-72
2023/12/04 10:59:02;;;;;;;0.30;0.30;;;;;;;3.23;55.89;95309.47;5051399;28;20207;-73
2023/12/04 11:01:31;;;;;;;0.60;0.60;;;;;;;3.68;55.05;95302.59;5051120;28;20267;-76
2023/12/04 11:04:06;;;;;;;0.85;0.65;;;;;;;4.11;52.40;95296.66;5050781;28;20713;-74
2023/12/04 11:06:40;;;;;;;2.10;1.50;;;;;;;4.56;53.12;95294.94;5051674;28;20571;-75
2023/12/04 11:09:07;;;;;;;2.38;1.15;;;;;;;4.25;52.56;95286.16;5051414;28;20215;-75
2023/12/04 11:11:40;;;;;;;1.58;1.15;;;;;;;4.31;52.05;95289.66;5050991;28;20212;-74
2023/12/04 11:14:11;;;;;;;1.52;1.25;;;;;;;4.56;51.33;95282.34;5051336;28;20262;-73
2023/12/04 11:16:47;;;;;;;0.20;0.20;;;;;;;4.22;52.50;95281.38;5051699;28;20318;-74
2023/12/04 11:19:19;;;;;;;0.20;0.20;;;;;;;4.09;54.45;95280.06;5051313;28;20599;-75
2023/12/04 11:21:47;;;;;;;0.20;0.20;;;;;;;4.39;52.33;95286.41;5051222;28;20642;-74
2023/12/04 11:24:14;;;;;;;0.32;0.32;;;;;;;4.75;53.57;95273.69;5051045;28;20235;-76
2023/12/04 11:26:43;;;;;;;0.20;0.20;;;;;;;5.21;52.09;95266.19;5050830;28;20200;-74
2023/12/04 11:29:10;;;;;;;0.20;0.20;;;;;;;5.17;51.20;95257.91;5051060;28;20249;-74
2023/12/04 11:31:38;;;;;;;0.20;0.20;;;;;;;5.18;51.84;95264.09;5051062;28;20222;-73
2023/12/04 11:34:06;;;;;;;0.30;0.30;;;;;;;5.05;52.29;95262.00;5050974;28;20559;-74
2023/12/04 11:36:32;;;;;;;0.20;0.20;;;;;;;4.97;50.72;95256.13;5050570;28;20207;-73
2023/12/04 11:39:02;;;;;;;0.35;0.35;;;;;;;5.10;52.32;95253.91;5051039;28;20199;-74
2023/12/04 11:41:31;;;;;;;0.20;0.20;;;;;;;4.14;53.67;95252.41;5051207;28;20323;-73